Time;durP1;ratioP1;P1;durP2;ratioP2;P2;SDS_P1;SDS_P2;PMS_P1;PMS_P2;Temp;Humidity;BMP_temperature;BMP_pressure;BME280_temperature;BME280_humidity;BME280_pressure;Samples;Min_cycle;Max_cycle;Signal;HPM_P1;HPM_P2
2021/09/01 00:00:32;;;;;;;;;;;19.60;72.10;;;;;;5079114;28;19916;-61
2021/09/01 00:02:58;;;;;;;;;;;19.70;72.20;;;;;;5070857;28;19924;-59
2021/09/01 00:05:23;;;;;;;;;;;19.70;72.20;;;;;;5054655;28;19909;-63
2021/09/01 00:07:49;;;;;;;;;;;19.60;72.10;;;;;;5081220;28;19912;-62
2021/09/01 00:10:14;;;;;;;;;;;19.70;72.20;;;;;;5064401;28;19912;-59
2021/09/01 00:12:40;;;;;;;;;;;19.70;72.20;;;;;;5056119;28;19916;-63
2021/09/01 00:15:06;;;;;;;;;;;19.70;72.10;;;;;;5078373;28;20475;-62
2021/09/01 00:17:34;;;;;;;;;;;19.70;72.10;;;;;;5078216;28;19995;-66
2021/09/01 00:19:59;;;;;;;;;;;19.70;72.10;;;;;;5083471;28;20125;-61
2021/09/01 00:22:25;;;;;;;;;;;19.70;72.10;;;;;;5070665;28;19912;-59
2021/09/01 00:24:50;;;;;;;;;;;19.70;72.10;;;;;;5084057;28;19912;-62
2021/09/01 00:27:15;;;;;;;;;;;19.70;72.10;;;;;;5071685;28;19917;-62
2021/09/01 00:29:41;;;;;;;;;;;19.70;72.10;;;;;;5076999;28;19912;-60
2021/09/01 00:32:06;;;;;;;;;;;19.70;72.00;;;;;;5041044;28;19924;-62
2021/09/01 00:34:32;;;;;;;;;;;19.70;72.10;;;;;;5084260;28;20462;-62
2021/09/01 00:36:57;;;;;;;;;;;19.60;72.00;;;;;;5053707;28;19912;-59
2021/09/01 00:39:23;;;;;;;;;;;19.70;72.00;;;;;;5073254;28;19917;-62
2021/09/01 00:41:48;;;;;;;;;;;19.60;72.00;;;;;;5072185;28;19920;-62
2021/09/01 00:44:16;;;;;;;;;;;19.70;71.90;;;;;;5089362;28;19919;-60
2021/09/01 00:46:42;;;;;;;;;;;19.60;71.90;;;;;;5069792;28;19919;-60
2021/09/01 00:49:08;;;;;;;;;;;19.60;71.80;;;;;;5067782;28;19924;-62
2021/09/01 00:51:33;;;;;;;;;;;19.70;71.90;;;;;;5085644;28;20523;-62
2021/09/01 00:53:58;;;;;;;;;;;19.60;71.80;;;;;;5048753;28;20027;-62
2021/09/01 00:56:24;;;;;;;;;;;19.60;71.80;;;;;;5075339;28;19925;-61
2021/09/01 00:58:49;;;;;;;;;;;19.60;71.90;;;;;;5053204;28;19912;-60
2021/09/01 01:01:19;;;;;;;;;;;19.60;71.80;;;;;;5065740;28;20003;-60
2021/09/01 01:03:47;;;;;;;;;;;19.60;71.80;;;;;;5071323;28;19920;-61
2021/09/01 01:06:13;;;;;;;;;;;19.70;71.90;;;;;;5072235;28;19916;-60
2021/09/01 01:08:39;;;;;;;;;;;19.70;71.90;;;;;;5084610;28;19911;-60
2021/09/01 01:11:08;;;;;;;;;;;19.60;71.80;;;;;;5058127;28;19941;-61
2021/09/01 01:13:33;;;;;;;;;;;19.60;71.80;;;;;;5066434;28;19927;-62
2021/09/01 01:15:59;;;;;;;;;;;19.60;71.80;;;;;;5079890;28;20300;-62
2021/09/01 01:18:24;;;;;;;;;;;19.60;71.80;;;;;;5071280;28;19923;-60
2021/09/01 01:20:50;;;;;;;;;;;19.60;71.70;;;;;;5089541;28;20058;-62
2021/09/01 01:23:16;;;;;;;;;;;19.60;71.70;;;;;;5064302;28;19916;-60
2021/09/01 01:25:41;;;;;;;;;;;19.60;71.70;;;;;;5083583;28;19912;-62
2021/09/01 01:28:07;;;;;;;;;;;19.70;71.70;;;;;;5088303;28;20056;-62
2021/09/01 01:30:33;;;;;;;;;;;19.60;71.60;;;;;;5077212;28;19940;-61
2021/09/01 01:32:58;;;;;;;;;;;19.60;71.60;;;;;;5087120;28;19904;-60
2021/09/01 01:35:30;;;;;;;;;;;19.60;71.60;;;;;;5061485;28;19913;-62
2021/09/01 01:37:56;;;;;;;;;;;19.60;71.60;;;;;;5072687;28;20316;-62
2021/09/01 01:40:21;;;;;;;;;;;19.60;71.60;;;;;;5073902;28;19994;-62
2021/09/01 01:42:47;;;;;;;;;;;19.60;71.60;;;;;;5074219;28;19920;-61
2021/09/01 01:45:12;;;;;;;;;;;19.60;71.60;;;;;;5074197;28;19916;-62
2021/09/01 01:47:38;;;;;;;;;;;19.60;71.60;;;;;;5081404;28;19920;-61
2021/09/01 01:50:04;;;;;;;;;;;19.60;71.60;;;;;;5048631;28;19978;-61
2021/09/01 01:52:29;;;;;;;;;;;19.60;71.60;;;;;;5088063;28;19915;-59
2021/09/01 01:54:54;;;;;;;;;;;19.60;71.60;;;;;;5071578;28;19916;-61
2021/09/01 01:57:20;;;;;;;;;;;19.60;71.60;;;;;;5084621;28;19912;-61
2021/09/01 01:59:45;;;;;;;;;;;19.60;71.60;;;;;;5073809;28;19918;-61
2021/09/01 02:02:11;;;;;;;;;;;19.60;71.80;;;;;;5086562;28;19919;-60
2021/09/01 02:04:36;;;;;;;;;;;19.60;71.50;;;;;;5081089;28;19912;-62
2021/09/01 02:07:02;;;;;;;;;;;19.60;71.50;;;;;;5072883;28;19920;-61
2021/09/01 02:09:27;;;;;;;;;;;19.60;71.50;;;;;;5085010;28;20285;-62
2021/09/01 02:11:53;;;;;;;;;;;19.60;71.40;;;;;;5064258;28;20569;-61
2021/09/01 02:14:18;;;;;;;;;;;19.60;71.40;;;;;;5063397;28;19959;-61
2021/09/01 02:16:43;;;;;;;;;;;19.50;71.40;;;;;;5049599;28;19912;-62
2021/09/01 02:19:09;;;;;;;;;;;19.60;71.40;;;;;;5093823;28;19919;-61
2021/09/01 02:21:37;;;;;;;;;;;19.60;71.40;;;;;;5066388;28;20456;-62
2021/09/01 02:24:03;;;;;;;;;;;19.60;71.40;;;;;;5072038;28;20079;-60
2021/09/01 02:26:28;;;;;;;;;;;19.60;71.40;;;;;;5068642;28;20302;-60
2021/09/01 02:28:54;;;;;;;;;;;19.60;71.40;;;;;;5071036;28;19912;-62
2021/09/01 02:31:19;;;;;;;;;;;19.60;71.40;;;;;;5085394;28;19916;-62
2021/09/01 02:33:44;;;;;;;;;;;19.60;71.40;;;;;;5082480;28;20366;-61
2021/09/01 02:36:10;;;;;;;;;;;19.60;71.40;;;;;;5059252;28;19909;-62
2021/09/01 02:38:35;;;;;;;;;;;19.60;71.40;;;;;;5075563;28;19912;-61
2021/09/01 02:41:01;;;;;;;;;;;19.60;71.40;;;;;;5077983;28;20573;-61
2021/09/01 02:43:26;;;;;;;;;;;19.60;71.30;;;;;;5071443;28;19919;-61
2021/09/01 02:45:52;;;;;;;;;;;19.50;71.40;;;;;;5068066;28;20305;-61
2021/09/01 02:48:17;;;;;;;;;;;19.60;71.30;;;;;;5064769;28;19928;-62
2021/09/01 02:50:43;;;;;;;;;;;19.60;71.30;;;;;;5090713;28;19919;-61
2021/09/01 02:53:08;;;;;;;;;;;19.60;71.30;;;;;;5068002;28;20356;-62
2021/09/01 02:55:34;;;;;;;;;;;19.60;71.30;;;;;;5072580;28;19920;-59
2021/09/01 02:57:59;;;;;;;;;;;19.50;71.20;;;;;;5074818;28;20360;-62
2021/09/01 03:00:25;;;;;;;;;;;19.60;71.30;;;;;;5091585;28;19908;-61
2021/09/01 03:02:50;;;;;;;;;;;19.60;71.20;;;;;;5061846;28;19912;-61
2021/09/01 03:05:16;;;;;;;;;;;19.50;71.20;;;;;;5090958;28;20288;-62
2021/09/01 03:07:41;;;;;;;;;;;19.50;71.20;;;;;;5079868;28;19919;-61
2021/09/01 03:10:07;;;;;;;;;;;19.50;71.20;;;;;;5097662;28;20366;-60
2021/09/01 03:12:32;;;;;;;;;;;19.50;71.10;;;;;;5047747;28;19965;-62
2021/09/01 03:14:58;;;;;;;;;;;19.50;71.10;;;;;;5094125;28;20311;-61
2021/09/01 03:17:23;;;;;;;;;;;19.50;71.10;;;;;;5102266;28;19916;-62
2021/09/01 03:19:49;;;;;;;;;;;19.50;71.20;;;;;;5069374;28;19937;-62
2021/09/01 03:22:14;;;;;;;;;;;19.50;71.20;;;;;;5108326;28;20266;-61
2021/09/01 03:24:39;;;;;;;;;;;19.50;71.10;;;;;;5071645;28;19960;-59
2021/09/01 03:27:05;;;;;;;;;;;19.50;71.10;;;;;;5108170;28;19908;-59
2021/09/01 03:29:30;;;;;;;;;;;19.50;71.10;;;;;;5075409;28;19912;-61
2021/09/01 03:31:56;;;;;;;;;;;19.50;71.10;;;;;;5077275;28;20285;-60
2021/09/01 03:34:22;;;;;;;;;;;19.50;71.10;;;;;;5051928;28;20097;-59
2021/09/01 03:36:47;;;;;;;;;;;19.50;71.10;;;;;;5071493;28;20411;-63
2021/09/01 03:39:13;;;;;;;;;;;19.50;71.00;;;;;;5070017;28;19961;-61
2021/09/01 03:41:38;;;;;;;;;;;19.50;71.10;;;;;;5089154;28;20258;-59
2021/09/01 03:44:04;;;;;;;;;;;19.50;71.10;;;;;;5061243;28;19916;-62
2021/09/01 03:46:29;;;;;;;;;;;19.50;71.10;;;;;;5080444;28;19919;-61
2021/09/01 03:48:55;;;;;;;;;;;19.50;71.10;;;;;;5093967;22;20378;-59
2021/09/01 03:51:20;;;;;;;;;;;19.50;71.10;;;;;;5103736;27;19923;-56
2021/09/01 03:53:46;;;;;;;;;;;19.50;71.10;;;;;;5103857;27;19916;-56
2021/09/01 03:56:11;;;;;;;;;;;19.50;71.10;;;;;;5104531;28;20323;-58
2021/09/01 03:58:37;;;;;;;;;;;19.50;71.10;;;;;;5104373;28;19912;-60
2021/09/01 04:01:02;;;;;;;;;;;19.50;71.10;;;;;;5104852;28;19924;-55
2021/09/01 04:03:28;;;;;;;;;;;19.50;71.10;;;;;;5104496;27;20368;-55
2021/09/01 04:05:53;;;;;;;;;;;19.50;71.10;;;;;;5104580;28;19964;-58
2021/09/01 04:08:18;;;;;;;;;;;19.50;71.10;;;;;;5103062;28;19919;-52
2021/09/01 04:10:44;;;;;;;;;;;19.40;71.20;;;;;;5100088;27;20060;-56
2021/09/01 04:13:09;;;;;;;;;;;19.40;71.40;;;;;;5103872;28;19927;-58
2021/09/01 04:15:35;;;;;;;;;;;19.40;71.60;;;;;;5104461;28;19911;-59
2021/09/01 04:18:00;;;;;;;;;;;19.40;71.70;;;;;;5104539;28;20457;-55
2021/09/01 04:20:26;;;;;;;;;;;19.40;71.90;;;;;;5103859;28;19915;-58
2021/09/01 04:22:51;;;;;;;;;;;19.40;72.00;;;;;;5103456;28;19931;-58
2021/09/01 04:25:17;;;;;;;;;;;19.40;72.20;;;;;;5103460;28;19934;-57
2021/09/01 04:27:42;;;;;;;;;;;19.40;72.20;;;;;;5101752;28;19996;-59
2021/09/01 04:30:08;;;;;;;;;;;19.40;72.30;;;;;;5103276;28;19916;-55
2021/09/01 04:32:33;;;;;;;;;;;19.40;72.40;;;;;;5103653;28;19916;-57
2021/09/01 04:34:59;;;;;;;;;;;19.40;72.50;;;;;;5104552;28;19912;-57
2021/09/01 04:37:24;;;;;;;;;;;19.40;72.50;;;;;;5104155;28;20304;-56
2021/09/01 04:39:49;;;;;;;;;;;19.40;72.60;;;;;;5103242;28;19931;-59
2021/09/01 04:42:15;;;;;;;;;;;19.30;72.60;;;;;;5103764;28;19923;-56
2021/09/01 04:44:40;;;;;;;;;;;19.40;72.70;;;;;;5085155;28;19912;-55
2021/09/01 04:47:06;;;;;;;;;;;19.30;72.70;;;;;;5102873;28;19935;-59
2021/09/01 04:49:31;;;;;;;;;;;19.30;72.60;;;;;;5103437;28;19920;-57
2021/09/01 04:51:57;;;;;;;;;;;19.30;72.70;;;;;;5103970;28;19915;-56
2021/09/01 04:54:22;;;;;;;;;;;19.30;72.70;;;;;;5084419;28;19972;-58
2021/09/01 04:56:48;;;;;;;;;;;19.30;72.60;;;;;;5104617;28;19916;-56
2021/09/01 04:59:13;;;;;;;;;;;19.40;72.60;;;;;;5103193;28;19916;-52
2021/09/01 05:01:38;;;;;;;;;;;19.40;72.50;;;;;;5103011;28;19955;-55
2021/09/01 05:04:04;;;;;;;;;;;19.40;72.50;;;;;;5100329;28;19939;-57
2021/09/01 05:06:29;;;;;;;;;;;19.40;72.50;;;;;;5085951;28;20296;-54
2021/09/01 05:08:55;;;;;;;;;;;19.40;72.50;;;;;;5101906;28;19923;-58
2021/09/01 05:11:20;;;;;;;;;;;19.40;72.30;;;;;;5103735;28;20028;-59
2021/09/01 05:13:46;;;;;;;;;;;19.40;72.20;;;;;;5101797;28;19912;-58
2021/09/01 05:16:11;;;;;;;;;;;19.40;72.20;;;;;;5102131;28;19919;-58
2021/09/01 05:18:37;;;;;;;;;;;19.40;72.20;;;;;;5102490;28;19922;-58
2021/09/01 05:21:02;;;;;;;;;;;19.40;72.10;;;;;;5103615;28;19919;-60
2021/09/01 05:23:32;;;;;;;;;;;19.40;72.10;;;;;;5082770;28;20484;-57
2021/09/01 05:25:57;;;;;;;;;;;19.40;72.10;;;;;;5103064;27;19919;-57
2021/09/01 05:28:24;;;;;;;;;;;19.40;72.50;;;;;;5083183;28;19924;-59
2021/09/01 05:30:50;;;;;;;;;;;19.40;72.90;;;;;;5099982;28;19951;-59
2021/09/01 05:33:16;;;;;;;;;;;19.40;73.10;;;;;;5074935;28;20448;-58
2021/09/01 05:35:41;;;;;;;;;;;19.40;73.10;;;;;;5099804;28;19912;-60
2021/09/01 05:38:07;;;;;;;;;;;19.40;73.10;;;;;;5076195;28;20563;-58
2021/09/01 05:40:32;;;;;;;;;;;19.40;73.10;;;;;;5080433;28;19923;-62
2021/09/01 05:42:58;;;;;;;;;;;19.40;73.20;;;;;;5084438;28;19912;-55
2021/09/01 05:45:23;;;;;;;;;;;19.40;73.10;;;;;;5101862;28;19941;-59
2021/09/01 05:47:49;;;;;;;;;;;19.40;73.00;;;;;;5080915;28;20625;-57
2021/09/01 05:50:14;;;;;;;;;;;19.40;72.80;;;;;;5077536;28;19960;-57
2021/09/01 05:52:40;;;;;;;;;;;19.40;72.70;;;;;;5101864;28;19916;-58
2021/09/01 05:55:10;;;;;;;;;;;19.40;72.50;;;;;;5084779;28;19912;-56
2021/09/01 05:57:36;;;;;;;;;;;19.40;72.60;;;;;;5103950;27;19947;-55
2021/09/01 06:00:13;;;;;;;;;;;19.40;72.50;;;;;;5067769;28;19919;-54
2021/09/01 06:02:51;;;;;;;;;;;19.40;72.60;;;;;;5102526;28;20354;-59
2021/09/01 06:05:17;;;;;;;;;;;19.40;72.50;;;;;;5089198;28;20009;-59
2021/09/01 06:07:53;;;;;;;;;;;19.40;72.50;;;;;;5085541;28;19935;-55
2021/09/01 06:10:22;;;;;;;;;;;19.40;72.50;;;;;;5068156;28;20703;-59
2021/09/01 06:12:47;;;;;;;;;;;19.40;72.50;;;;;;5085429;28;19923;-59
2021/09/01 06:15:13;;;;;;;;;;;19.40;72.50;;;;;;5070813;28;19915;-58
2021/09/01 06:17:38;;;;;;;;;;;19.40;72.50;;;;;;5101745;28;19912;-59
2021/09/01 06:20:04;;;;;;;;;;;19.40;72.50;;;;;;5089767;28;19933;-56
2021/09/01 06:22:30;;;;;;;;;;;19.40;72.50;;;;;;5100594;28;19923;-53
2021/09/01 06:24:55;;;;;;;;;;;19.40;72.50;;;;;;5104398;28;19908;-57
2021/09/01 06:27:20;;;;;;;;;;;19.40;72.50;;;;;;5086338;28;19911;-58
2021/09/01 06:29:46;;;;;;;;;;;19.40;72.50;;;;;;5104899;28;19911;-56
2021/09/01 06:32:11;;;;;;;;;;;19.40;72.50;;;;;;5086579;28;20439;-58
2021/09/01 06:34:37;;;;;;;;;;;19.40;72.80;;;;;;5103937;28;19916;-57
2021/09/01 06:37:02;;;;;;;;;;;19.40;73.00;;;;;;5085123;28;19912;-57
2021/09/01 06:39:28;;;;;;;;;;;19.40;73.50;;;;;;5086008;28;19915;-56
2021/09/01 06:41:53;;;;;;;;;;;19.40;74.40;;;;;;5076499;28;19938;-55
2021/09/01 06:44:19;;;;;;;;;;;19.40;74.40;;;;;;5097819;28;20395;-57
2021/09/01 06:46:44;;;;;;;;;;;19.40;74.10;;;;;;5088113;28;19911;-57
2021/09/01 06:49:10;;;;;;;;;;;19.40;74.20;;;;;;5102084;28;19920;-57
2021/09/01 06:51:35;;;;;;;;;;;19.40;74.50;;;;;;5090410;28;20423;-59
2021/09/01 06:54:01;;;;;;;;;;;19.40;74.40;;;;;;5099059;28;19926;-56
2021/09/01 06:56:26;;;;;;;;;;;19.40;74.30;;;;;;5101120;28;19912;-53
2021/09/01 06:58:51;;;;;;;;;;;19.40;74.10;;;;;;5082899;28;20019;-59
2021/09/01 07:01:17;;;;;;;;;;;19.40;73.80;;;;;;5101308;28;19919;-57
2021/09/01 07:03:43;;;;;;;;;;;19.40;73.80;;;;;;5102120;28;20309;-55
2021/09/01 07:06:08;;;;;;;;;;;19.50;73.80;;;;;;5100450;28;19935;-56
2021/09/01 07:08:34;;;;;;;;;;;19.40;73.60;;;;;;5083655;28;20361;-57
2021/09/01 07:10:59;;;;;;;;;;;19.40;73.70;;;;;;5106268;28;19912;-55
2021/09/01 07:13:25;;;;;;;;;;;19.40;73.50;;;;;;5078867;28;19918;-55
2021/09/01 07:15:50;;;;;;;;;;;19.40;73.50;;;;;;5104489;28;19908;-55
2021/09/01 07:18:16;;;;;;;;;;;19.40;73.50;;;;;;5088841;28;19912;-55
2021/09/01 07:20:42;;;;;;;;;;;19.40;73.50;;;;;;5107320;28;19912;-56
2021/09/01 07:23:08;;;;;;;;;;;19.40;73.50;;;;;;5077031;28;19915;-57
2021/09/01 07:25:34;;;;;;;;;;;19.40;73.50;;;;;;5101412;28;20047;-55
2021/09/01 07:27:59;;;;;;;;;;;19.40;73.50;;;;;;5090941;28;20356;-59
2021/09/01 07:30:25;;;;;;;;;;;19.40;73.60;;;;;;5106199;28;19926;-58
2021/09/01 07:32:50;;;;;;;;;;;19.40;73.40;;;;;;5072211;28;19916;-57
2021/09/01 07:35:16;;;;;;;;;;;19.40;73.50;;;;;;5105213;28;20295;-53
2021/09/01 07:37:44;;;;;;;;;;;19.40;73.50;;;;;;5093452;28;19929;-58
2021/09/01 07:40:10;;;;;;;;;;;19.40;73.50;;;;;;5103477;28;19922;-56
2021/09/01 07:42:36;;;;;;;;;;;19.40;73.50;;;;;;5108542;28;19908;-55
2021/09/01 07:45:02;;;;;;;;;;;19.40;73.50;;;;;;5076806;28;20029;-55
2021/09/01 07:47:27;;;;;;;;;;;19.40;73.50;;;;;;5108246;28;19911;-56
2021/09/01 07:49:53;;;;;;;;;;;19.40;73.50;;;;;;5086941;28;19931;-58
2021/09/01 07:52:18;;;;;;;;;;;19.40;73.40;;;;;;5107416;28;19924;-54
2021/09/01 07:54:44;;;;;;;;;;;19.40;73.40;;;;;;5087995;28;19912;-58
2021/09/01 07:57:09;;;;;;;;;;;19.40;73.50;;;;;;5104767;28;19912;-58
2021/09/01 07:59:34;;;;;;;;;;;19.40;73.40;;;;;;5086208;28;19968;-53
2021/09/01 08:02:00;;;;;;;;;;;19.40;73.50;;;;;;5106319;28;20284;-56
2021/09/01 08:04:25;;;;;;;;;;;19.40;73.50;;;;;;5089963;28;19912;-58
2021/09/01 08:06:51;;;;;;;;;;;19.40;73.50;;;;;;5106019;28;19915;-57
2021/09/01 08:09:18;;;;;;;;;;;19.40;73.40;;;;;;5064486;28;20001;-59
2021/09/01 08:11:44;;;;;;;;;;;19.40;73.50;;;;;;5104083;28;19926;-59
2021/09/01 08:14:09;;;;;;;;;;;19.40;73.50;;;;;;5091968;28;19908;-60
2021/09/01 08:16:35;;;;;;;;;;;19.40;73.40;;;;;;5104249;28;19987;-58
2021/09/01 08:19:00;;;;;;;;;;;19.40;73.50;;;;;;5089205;28;19956;-57
2021/09/01 08:21:26;;;;;;;;;;;19.40;73.40;;;;;;5089108;28;19912;-58
2021/09/01 08:23:51;;;;;;;;;;;19.40;73.40;;;;;;5107115;28;20357;-53
2021/09/01 08:26:17;;;;;;;;;;;19.40;73.50;;;;;;5078053;28;19916;-57
2021/09/01 08:28:43;;;;;;;;;;;19.40;73.60;;;;;;5107530;28;20169;-57
2021/09/01 08:31:09;;;;;;;;;;;19.40;73.50;;;;;;5090228;28;19920;-53
2021/09/01 08:33:34;;;;;;;;;;;19.40;73.50;;;;;;5088519;28;19964;-58
2021/09/01 08:35:59;;;;;;;;;;;19.40;73.50;;;;;;5078966;28;19922;-56
2021/09/01 08:38:25;;;;;;;;;;;19.40;74.20;;;;;;5099780;28;19916;-54
2021/09/01 08:40:50;;;;;;;;;;;19.40;73.60;;;;;;5089972;27;20296;-56
2021/09/01 08:43:19;;;;;;;;;;;19.40;73.50;;;;;;5086855;28;19957;-55
2021/09/01 08:45:47;;;;;;;;;;;19.40;73.50;;;;;;5087636;28;19951;-59
2021/09/01 08:48:13;;;;;;;;;;;19.40;73.50;;;;;;5085799;28;20051;-56
2021/09/01 08:50:39;;;;;;;;;;;19.40;73.50;;;;;;5073581;28;19994;-57
2021/09/01 08:53:04;;;;;;;;;;;19.40;73.50;;;;;;5102784;28;20006;-59
2021/09/01 08:55:30;;;;;;;;;;;19.40;73.50;;;;;;5091313;28;19908;-58
2021/09/01 08:57:55;;;;;;;;;;;19.40;73.50;;;;;;5070337;28;20373;-56
2021/09/01 09:00:20;;;;;;;;;;;19.40;73.50;;;;;;5106182;28;19907;-58
2021/09/01 09:02:53;;;;;;;;;;;19.40;73.50;;;;;;5084680;28;19911;-52
2021/09/01 09:05:18;;;;;;;;;;;19.30;73.40;;;;;;5106663;28;20611;-53
2021/09/01 09:07:53;;;;;;;;;;;19.40;73.50;;;;;;5069819;28;19919;-56
2021/09/01 09:10:32;;;;;;;;;;;19.40;73.50;;;;;;5087909;28;19938;-56
2021/09/01 09:12:58;;;;;;;;;;;19.40;73.50;;;;;;5068930;28;19915;-57
2021/09/01 09:15:24;;;;;;;;;;;19.40;73.60;;;;;;5086176;28;19916;-58
2021/09/01 09:17:49;;;;;;;;;;;19.40;73.50;;;;;;5086977;28;19971;-56
2021/09/01 09:20:14;;;;;;;;;;;19.40;73.60;;;;;;5086296;28;20305;-57
2021/09/01 09:22:40;;;;;;;;;;;19.40;73.50;;;;;;5075534;28;19965;-58
2021/09/01 09:25:09;;;;;;;;;;;19.40;73.50;;;;;;5097534;28;19912;-59
2021/09/01 09:27:45;;;;;;;;;;;19.40;73.50;;;;;;5089118;28;19975;-56
2021/09/01 09:30:19;;;;;;;;;;;19.40;73.50;;;;;;5102832;28;19912;-60
2021/09/01 09:32:51;;;;;;;;;;;19.40;73.50;;;;;;5086324;28;19922;-59
2021/09/01 09:35:17;;;;;;;;;;;19.40;73.50;;;;;;5103081;28;20448;-56
2021/09/01 09:37:42;;;;;;;;;;;19.30;73.50;;;;;;5076274;28;19912;-58
2021/09/01 09:40:11;;;;;;;;;;;19.30;73.50;;;;;;5102865;28;20420;-54
2021/09/01 09:42:38;;;;;;;;;;;19.40;73.60;;;;;;5088496;28;19926;-59
2021/09/01 09:45:24;;;;;;;;;;;19.40;73.50;;;;;;5103440;28;19923;-55
2021/09/01 09:47:50;;;;;;;;;;;19.30;73.60;;;;;;5085725;28;19923;-59
2021/09/01 09:50:15;;;;;;;;;;;19.30;73.50;;;;;;5107434;22;19923;-60
2021/09/01 09:52:41;;;;;;;;;;;19.40;73.50;;;;;;5079916;28;19919;-61
2021/09/01 09:55:16;;;;;;;;;;;19.30;73.50;;;;;;5098707;28;20063;-62
2021/09/01 09:57:46;;;;;;;;;;;19.30;73.50;;;;;;5090956;28;20281;-61
2021/09/01 10:00:11;;;;;;;;;;;19.40;73.60;;;;;;5053335;28;19957;-62
2021/09/01 10:02:37;;;;;;;;;;;19.40;73.60;;;;;;5080984;28;19915;-60
2021/09/01 10:05:02;;;;;;;;;;;19.30;73.50;;;;;;5098706;28;19920;-61
2021/09/01 10:07:27;;;;;;;;;;;19.30;73.60;;;;;;5081352;28;19912;-60
2021/09/01 10:09:53;;;;;;;;;;;19.40;73.50;;;;;;5080046;28;19916;-60
2021/09/01 10:12:18;;;;;;;;;;;19.30;73.60;;;;;;5098214;28;19920;-61
2021/09/01 10:14:44;;;;;;;;;;;19.30;73.60;;;;;;5080086;28;19964;-61
2021/09/01 10:17:09;;;;;;;;;;;19.30;73.80;;;;;;5080885;28;20261;-60
2021/09/01 10:19:35;;;;;;;;;;;19.30;73.70;;;;;;5080656;28;19916;-61
2021/09/01 10:22:01;;;;;;;;;;;19.30;73.70;;;;;;5081396;28;20287;-61
2021/09/01 10:24:28;;;;;;;;;;;19.30;73.70;;;;;;5097511;28;20213;-61
2021/09/01 10:26:57;;;;;;;;;;;19.30;73.80;;;;;;5081107;28;20435;-61
2021/09/01 10:29:38;;;;;;;;;;;19.30;73.70;;;;;;5074514;28;19923;-61
2021/09/01 10:32:20;;;;;;;;;;;19.30;74.30;;;;;;5091991;28;20031;-60
2021/09/01 10:34:45;;;;;;;;;;;19.30;73.70;;;;;;5097699;28;19913;-60
2021/09/01 10:37:31;;;;;;;;;;;19.30;73.70;;;;;;5099471;28;20007;-61
2021/09/01 10:39:56;;;;;;;;;;;19.30;73.70;;;;;;5094574;28;19912;-62
2021/09/01 10:42:35;;;;;;;;;;;19.30;73.60;;;;;;5080329;28;20407;-60
2021/09/01 10:45:00;;;;;;;;;;;19.30;73.60;;;;;;5081144;28;20002;-61
2021/09/01 10:47:26;;;;;;;;;;;19.30;73.70;;;;;;5103439;28;19934;-60
2021/09/01 10:49:54;;;;;;;;;;;19.30;73.70;;;;;;5102048;28;19924;-61
2021/09/01 10:52:19;;;;;;;;;;;19.30;73.70;;;;;;5102806;28;20491;-60
2021/09/01 10:54:45;;;;;;;;;;;19.30;73.70;;;;;;5103726;28;20003;-61
2021/09/01 10:57:23;;;;;;;;;;;19.30;73.80;;;;;;5103812;28;20398;-62
2021/09/01 10:59:49;;;;;;;;;;;19.30;73.80;;;;;;5100687;28;19911;-62
2021/09/01 11:02:17;;;;;;;;;;;19.30;73.80;;;;;;5083803;28;19912;-61
2021/09/01 11:04:49;;;;;;;;;;;19.40;73.80;;;;;;5102479;28;19933;-62
2021/09/01 11:07:22;;;;;;;;;;;19.30;73.80;;;;;;5103600;28;20487;-60
2021/09/01 11:09:51;;;;;;;;;;;19.30;73.80;;;;;;5102017;28;20578;-60
2021/09/01 11:12:16;;;;;;;;;;;19.30;73.80;;;;;;5103920;28;20435;-59
2021/09/01 11:14:43;;;;;;;;;;;19.30;73.80;;;;;;5084591;28;19916;-60
2021/09/01 11:17:12;;;;;;;;;;;19.30;73.80;;;;;;5103510;28;19939;-61
2021/09/01 11:19:38;;;;;;;;;;;19.30;73.80;;;;;;5102685;28;20348;-61
2021/09/01 11:22:06;;;;;;;;;;;19.40;73.80;;;;;;5103602;28;19919;-60
2021/09/01 11:24:32;;;;;;;;;;;19.30;73.80;;;;;;5102648;28;19916;-60
2021/09/01 11:26:57;;;;;;;;;;;19.40;73.80;;;;;;5083911;28;19926;-60
2021/09/01 11:29:29;;;;;;;;;;;19.30;73.80;;;;;;5101955;28;19954;-61
2021/09/01 11:31:55;;;;;;;;;;;19.30;73.80;;;;;;5103179;28;20467;-61
2021/09/01 11:34:20;;;;;;;;;;;19.30;73.80;;;;;;5102365;28;19912;-60
2021/09/01 11:36:46;;;;;;;;;;;19.30;73.80;;;;;;5103177;28;19912;-59
2021/09/01 11:39:11;;;;;;;;;;;19.30;73.80;;;;;;5101103;28;19911;-62
2021/09/01 11:41:37;;;;;;;;;;;19.30;73.90;;;;;;5102256;28;19920;-61
2021/09/01 11:44:03;;;;;;;;;;;19.30;73.80;;;;;;5102564;28;20003;-61
2021/09/01 11:46:32;;;;;;;;;;;19.30;73.90;;;;;;5102263;28;19912;-62
2021/09/01 11:49:07;;;;;;;;;;;19.30;73.90;;;;;;5077205;28;20533;-61
2021/09/01 11:51:33;;;;;;;;;;;19.30;73.90;;;;;;5100088;28;19938;-61
2021/09/01 11:53:59;;;;;;;;;;;19.30;73.90;;;;;;5084352;28;20400;-59
2021/09/01 11:56:27;;;;;;;;;;;19.30;74.00;;;;;;5100280;28;19927;-59
2021/09/01 11:59:03;;;;;;;;;;;19.30;73.90;;;;;;5082151;28;19926;-60
2021/09/01 12:01:28;;;;;;;;;;;19.30;73.90;;;;;;5100572;28;19920;-60
2021/09/01 12:03:54;;;;;;;;;;;19.30;74.00;;;;;;5075251;28;20423;-60
2021/09/01 12:06:19;;;;;;;;;;;19.30;74.00;;;;;;5097293;28;20368;-60
2021/09/01 12:08:46;;;;;;;;;;;19.30;74.00;;;;;;5085750;28;20698;-61
2021/09/01 12:11:11;;;;;;;;;;;19.30;74.00;;;;;;5101754;28;19916;-61
2021/09/01 12:13:38;;;;;;;;;;;19.30;74.10;;;;;;5068838;28;20500;-59
2021/09/01 12:16:03;;;;;;;;;;;19.30;74.10;;;;;;5102040;28;19959;-60
2021/09/01 12:18:29;;;;;;;;;;;19.30;74.20;;;;;;5087537;28;19935;-59
2021/09/01 12:20:55;;;;;;;;;;;19.30;74.40;;;;;;5083828;28;20396;-60
2021/09/01 12:23:20;;;;;;;;;;;19.40;74.20;;;;;;5104229;28;19908;-62
2021/09/01 12:25:46;;;;;;;;;;;19.30;74.10;;;;;;5083520;28;19942;-62
2021/09/01 12:28:13;;;;;;;;;;;19.30;74.20;;;;;;5086245;28;19908;-61
2021/09/01 12:30:40;;;;;;;;;;;19.30;74.20;;;;;;5082602;28;20560;-60
2021/09/01 12:33:08;;;;;;;;;;;19.30;74.20;;;;;;5103357;28;20016;-60
2021/09/01 12:35:34;;;;;;;;;;;19.30;74.20;;;;;;5084269;28;20199;-61
2021/09/01 12:38:03;;;;;;;;;;;19.30;74.20;;;;;;5102600;28;19938;-61
2021/09/01 12:40:32;;;;;;;;;;;19.30;74.20;;;;;;5084403;28;19912;-61
2021/09/01 12:42:59;;;;;;;;;;;19.30;74.20;;;;;;5102875;28;19918;-61
2021/09/01 12:45:25;;;;;;;;;;;19.30;74.20;;;;;;5086657;28;19930;-61
2021/09/01 12:47:51;;;;;;;;;;;19.30;74.20;;;;;;5101415;28;19926;-60
2021/09/01 12:50:17;;;;;;;;;;;19.30;74.20;;;;;;5072537;28;19974;-61
2021/09/01 12:52:42;;;;;;;;;;;19.30;74.30;;;;;;5082975;28;19943;-60
2021/09/01 12:55:08;;;;;;;;;;;19.30;74.20;;;;;;5086642;28;20006;-61
2021/09/01 12:57:33;;;;;;;;;;;19.30;74.30;;;;;;5083582;28;19912;-60
2021/09/01 12:59:58;;;;;;;;;;;19.30;74.30;;;;;;5084786;28;19908;-60
2021/09/01 13:02:24;;;;;;;;;;;19.30;74.30;;;;;;5098413;28;19920;-59
2021/09/01 13:04:49;;;;;;;;;;;19.30;74.30;;;;;;5101394;28;19918;-62
2021/09/01 13:07:15;;;;;;;;;;;19.30;74.40;;;;;;5072154;28;19911;-60
2021/09/01 13:09:40;;;;;;;;;;;19.30;74.40;;;;;;5102339;28;19914;-60
2021/09/01 13:12:06;;;;;;;;;;;19.30;74.40;;;;;;5084048;28;20400;-61
2021/09/01 13:14:32;;;;;;;;;;;19.30;74.40;;;;;;5101961;28;19999;-60
2021/09/01 13:16:57;;;;;;;;;;;19.30;74.40;;;;;;5070950;28;19918;-60
2021/09/01 13:19:23;;;;;;;;;;;19.30;74.40;;;;;;5097491;28;20440;-59
2021/09/01 13:21:48;;;;;;;;;;;19.30;74.40;;;;;;5084105;28;19918;-62
2021/09/01 13:24:14;;;;;;;;;;;19.30;74.40;;;;;;5099170;28;19940;-60
2021/09/01 13:26:39;;;;;;;;;;;19.30;74.50;;;;;;5084693;28;19935;-61
2021/09/01 13:29:05;;;;;;;;;;;19.30;74.40;;;;;;5099616;28;19919;-60
2021/09/01 13:31:31;;;;;;;;;;;19.30;74.50;;;;;;5086012;28;19915;-61
2021/09/01 13:33:57;;;;;;;;;;;19.30;74.40;;;;;;5098901;28;19951;-62
2021/09/01 13:36:23;;;;;;;;;;;19.30;74.40;;;;;;5087128;28;19951;-60
2021/09/01 13:38:48;;;;;;;;;;;19.30;74.50;;;;;;5081589;28;19913;-60
2021/09/01 13:41:13;;;;;;;;;;;19.30;74.50;;;;;;5102012;28;20055;-60
2021/09/01 13:43:39;;;;;;;;;;;19.30;74.50;;;;;;5080468;28;19934;-62
2021/09/01 13:46:04;;;;;;;;;;;19.30;74.50;;;;;;5101310;28;19914;-60
2021/09/01 13:48:30;;;;;;;;;;;19.30;74.50;;;;;;5065173;28;19947;-61
2021/09/01 13:50:55;;;;;;;;;;;19.30;74.50;;;;;;5100934;28;20368;-61
2021/09/01 13:53:22;;;;;;;;;;;19.30;74.50;;;;;;5068846;28;20015;-61
2021/09/01 13:55:48;;;;;;;;;;;19.30;74.50;;;;;;5065432;28;19926;-60
2021/09/01 13:58:13;;;;;;;;;;;19.30;74.40;;;;;;5084456;28;19912;-60
2021/09/01 14:00:38;;;;;;;;;;;19.30;74.50;;;;;;5099814;28;19995;-61
2021/09/01 14:03:04;;;;;;;;;;;19.30;74.50;;;;;;5073343;28;19912;-61
2021/09/01 14:05:30;;;;;;;;;;;19.30;74.60;;;;;;5092668;28;20380;-61
2021/09/01 14:07:56;;;;;;;;;;;19.30;74.50;;;;;;5066118;28;20277;-61
2021/09/01 14:10:21;;;;;;;;;;;19.30;74.50;;;;;;5099612;28;19965;-60